createdAt,value
2023-05-01T00:01:53.254Z,4.93
2023-05-01T00:04:22.383Z,4.83
2023-05-01T00:06:50.683Z,4.50
2023-05-01T00:09:19.167Z,4.80
2023-05-01T00:11:47.277Z,4.93
2023-05-01T00:14:15.317Z,5.10
2023-05-01T00:16:46.192Z,4.53
2023-05-01T00:19:18.231Z,5.03
2023-05-01T00:21:47.933Z,5.40
2023-05-01T00:24:16.489Z,4.40
2023-05-01T00:26:45.024Z,4.53
2023-05-01T00:29:13.108Z,4.90
2023-05-01T00:31:42.558Z,4.60
2023-05-01T00:34:12.683Z,4.53
2023-05-01T00:36:40.990Z,4.60
2023-05-01T00:39:09.087Z,4.80
2023-05-01T00:41:37.321Z,4.57
2023-05-01T00:44:05.798Z,4.67
2023-05-01T00:46:35.999Z,4.20
2023-05-01T00:49:05.165Z,4.40
2023-05-01T00:51:35.199Z,4.60
2023-05-01T00:54:04.557Z,5.07
2023-05-01T00:56:33.009Z,5.43
2023-05-01T00:59:01.859Z,4.63
2023-05-01T01:01:30.332Z,4.87
2023-05-01T01:03:58.478Z,4.93
2023-05-01T01:06:43.812Z,4.77
2023-05-01T01:09:29.722Z,4.90
2023-05-01T01:12:10.468Z,4.70
2023-05-01T01:14:49.477Z,4.73
2023-05-01T01:17:31.680Z,5.10
2023-05-01T01:20:34.048Z,4.93
2023-05-01T01:23:36.104Z,4.80
2023-05-01T01:26:29.330Z,4.80
2023-05-01T01:29:22.915Z,4.83
2023-05-01T01:32:08.927Z,5.47
2023-05-01T01:34:46.082Z,4.90
2023-05-01T01:37:24.853Z,4.63
2023-05-01T01:40:02.298Z,4.97
2023-05-01T01:42:37.480Z,4.67
2023-05-01T01:45:14.567Z,4.63
2023-05-01T01:47:45.432Z,4.27
2023-05-01T01:50:18.339Z,5.00
2023-05-01T01:52:50.385Z,4.90
2023-05-01T01:55:23.789Z,5.30
2023-05-01T01:57:53.528Z,5.57
2023-05-01T02:00:23.694Z,4.47
2023-05-01T02:02:54.653Z,5.10
2023-05-01T02:05:26.912Z,5.00
2023-05-01T02:07:57.356Z,4.90
2023-05-01T02:10:28.671Z,4.87
2023-05-01T02:12:59.208Z,5.10
2023-05-01T02:15:29.515Z,5.00
2023-05-01T02:17:59.237Z,5.13
2023-05-01T02:20:30.286Z,5.30
2023-05-01T02:23:00.277Z,5.20
2023-05-01T02:25:32.758Z,5.23
2023-05-01T02:28:04.909Z,5.40
2023-05-01T02:30:33.170Z,5.20
2023-05-01T02:33:01.282Z,5.30
2023-05-01T02:35:30.707Z,5.20
2023-05-01T02:37:59.020Z,5.20
2023-05-01T02:40:28.629Z,5.63
2023-05-01T02:42:56.807Z,5.03
2023-05-01T02:45:26.989Z,5.87
2023-05-01T02:48:00.644Z,5.80
2023-05-01T02:50:31.023Z,5.50
2023-05-01T02:53:02.309Z,5.87
2023-05-01T02:55:33.076Z,5.60
2023-05-01T02:58:02.582Z,5.47
2023-05-01T03:00:32.478Z,4.57
2023-05-01T03:03:03.868Z,4.87
2023-05-01T03:05:41.547Z,5.90
2023-05-01T03:08:09.961Z,5.37
2023-05-01T03:10:40.648Z,5.60
2023-05-01T03:13:08.770Z,5.60
2023-05-01T03:15:36.829Z,5.33
2023-05-01T03:18:05.362Z,5.73
2023-05-01T03:20:34.888Z,5.47
2023-05-01T03:23:03.220Z,5.63
2023-05-01T03:25:31.329Z,5.67
2023-05-01T03:27:59.440Z,5.53
2023-05-01T03:30:27.443Z,5.70
2023-05-01T03:32:56.289Z,6.30
2023-05-01T03:35:24.362Z,5.30
2023-05-01T03:37:53.906Z,5.90
2023-05-01T03:40:22.029Z,5.80
2023-05-01T03:42:50.212Z,5.80
2023-05-01T03:45:18.459Z,6.30
2023-05-01T03:47:46.606Z,6.17
2023-05-01T03:50:14.726Z,5.87
2023-05-01T03:52:42.962Z,6.23
2023-05-01T03:55:12.544Z,6.27
2023-05-01T03:57:41.850Z,5.93
2023-05-01T04:00:12.010Z,6.20
2023-05-01T04:02:40.215Z,6.17
2023-05-01T04:05:09.274Z,6.30
2023-05-01T04:07:37.613Z,5.60
2023-05-01T04:10:07.220Z,6.03
2023-05-01T04:12:36.722Z,6.17
2023-05-01T04:15:05.217Z,6.50
2023-05-01T04:17:33.378Z,6.30
2023-05-01T04:20:01.683Z,6.00
2023-05-01T04:22:30.218Z,6.33
2023-05-01T04:24:58.331Z,6.77
2023-05-01T04:27:26.649Z,6.10
2023-05-01T04:29:56.600Z,6.07
2023-05-01T04:32:24.889Z,6.73
2023-05-01T04:34:53.448Z,6.27
2023-05-01T04:37:21.485Z,7.10
2023-05-01T04:39:50.857Z,6.47
2023-05-01T04:42:18.943Z,7.07
2023-05-01T04:44:47.338Z,6.90
2023-05-01T04:47:16.756Z,6.33
2023-05-01T04:49:44.779Z,7.17
2023-05-01T04:52:13.093Z,6.87
2023-05-01T04:54:41.230Z,6.00
2023-05-01T04:57:09.297Z,6.20
2023-05-01T04:59:37.684Z,6.77
2023-05-01T05:02:06.015Z,6.67
2023-05-01T05:04:35.540Z,6.77
2023-05-01T05:07:03.588Z,6.60
2023-05-01T05:09:31.650Z,6.63
2023-05-01T05:11:59.704Z,6.97
2023-05-01T05:14:27.800Z,6.50
2023-05-01T05:16:56.367Z,6.83
2023-05-01T05:19:24.517Z,7.07
2023-05-01T05:21:53.961Z,6.77
2023-05-01T05:24:22.006Z,6.83
2023-05-01T05:26:50.582Z,6.87
2023-05-01T05:29:18.680Z,7.67
2023-05-01T05:31:47.301Z,6.20
2023-05-01T05:34:15.660Z,6.53
2023-05-01T05:36:43.863Z,7.03
2023-05-01T05:39:13.806Z,7.10
2023-05-01T05:41:41.862Z,6.23
2023-05-01T05:44:09.890Z,6.40
2023-05-01T05:46:38.006Z,6.13
2023-05-01T05:49:06.089Z,6.87
2023-05-01T05:51:34.141Z,6.90
2023-05-01T05:54:02.194Z,6.47
2023-05-01T05:56:31.612Z,6.97
2023-05-01T05:59:03.337Z,6.27
2023-05-01T06:01:32.316Z,7.13
2023-05-01T06:04:00.907Z,6.53
2023-05-01T06:06:29.193Z,6.50
2023-05-01T06:08:57.256Z,6.33
2023-05-01T06:11:26.007Z,7.17
2023-05-01T06:13:56.605Z,6.83
2023-05-01T06:16:25.557Z,5.87
2023-05-01T06:18:53.740Z,6.40
2023-05-01T06:21:21.909Z,6.00
2023-05-01T06:23:50.105Z,6.57
2023-05-01T06:26:18.154Z,5.53
2023-05-01T06:28:46.228Z,5.70
2023-05-01T06:31:15.691Z,6.47
2023-05-01T06:33:43.777Z,6.53
2023-05-01T06:36:11.812Z,5.93
2023-05-01T06:38:40.498Z,6.30
2023-05-01T06:41:08.668Z,6.10
2023-05-01T06:43:36.693Z,6.47
2023-05-01T06:46:05.089Z,5.97
2023-05-01T06:48:34.456Z,6.53
2023-05-01T06:51:02.556Z,6.50
2023-05-01T06:53:30.637Z,6.33
2023-05-01T06:55:58.790Z,6.60
2023-05-01T06:58:26.913Z,6.30
2023-05-01T07:00:55.238Z,6.80
2023-05-01T07:03:23.430Z,6.57
2023-05-01T07:05:52.907Z,7.00
2023-05-01T07:08:21.385Z,6.63
2023-05-01T07:10:50.432Z,6.30
2023-05-01T07:13:19.441Z,6.73
2023-05-01T07:15:48.754Z,6.80
2023-05-01T07:18:17.124Z,6.50
2023-05-01T07:20:45.573Z,7.00
2023-05-01T07:23:15.014Z,6.60
2023-05-01T07:25:44.301Z,6.37
2023-05-01T07:28:12.481Z,5.53
2023-05-01T07:30:41.374Z,6.40
2023-05-01T07:33:09.501Z,6.53
2023-05-01T07:35:37.619Z,6.60
2023-05-01T07:38:05.705Z,6.57
2023-05-01T07:40:36.594Z,7.17
2023-05-01T07:43:04.943Z,6.33
2023-05-01T07:45:33.058Z,6.13
2023-05-01T07:48:01.286Z,6.97
2023-05-01T07:50:29.429Z,6.00
2023-05-01T07:52:57.651Z,5.80
2023-05-01T07:55:25.994Z,5.60
2023-05-01T07:57:56.092Z,5.53
2023-05-01T08:00:24.514Z,5.50
2023-05-01T08:02:53.073Z,5.90
2023-05-01T08:05:21.354Z,5.57
2023-05-01T08:07:49.375Z,5.90
2023-05-01T08:10:17.662Z,5.77
2023-05-01T08:12:45.898Z,5.80
2023-05-01T08:15:15.585Z,5.27
2023-05-01T08:17:43.634Z,5.77
2023-05-01T08:20:13.993Z,5.83
2023-05-01T08:22:42.124Z,5.43
2023-05-01T08:25:10.319Z,5.60
2023-05-01T08:27:38.569Z,5.77
2023-05-01T08:30:08.669Z,4.97
2023-05-01T08:32:38.138Z,5.40
2023-05-01T08:35:07.333Z,4.67
2023-05-01T08:37:35.610Z,5.23
2023-05-01T08:40:08.311Z,5.20
2023-05-01T08:42:38.775Z,4.67
2023-05-01T08:45:10.044Z,4.87
2023-05-01T08:47:41.439Z,4.63
2023-05-01T08:50:12.447Z,5.00
2023-05-01T08:52:43.395Z,4.47
2023-05-01T08:55:15.213Z,4.67
2023-05-01T08:57:47.254Z,4.73
2023-05-01T09:00:20.516Z,4.53
2023-05-01T09:02:52.430Z,4.53
2023-05-01T09:05:21.975Z,4.40
2023-05-01T09:07:50.187Z,4.60
2023-05-01T09:10:19.649Z,4.10
2023-05-01T09:12:56.298Z,4.27
2023-05-01T09:15:26.934Z,4.17
2023-05-01T09:17:58.746Z,3.90
2023-05-01T09:20:29.594Z,3.97
2023-05-01T09:22:58.295Z,4.27
2023-05-01T09:25:26.372Z,4.03
2023-05-01T09:27:56.959Z,4.23
2023-05-01T09:30:33.594Z,4.00
2023-05-01T09:33:14.341Z,3.70
2023-05-01T09:35:54.250Z,4.20
2023-05-01T09:38:25.379Z,4.20
2023-05-01T09:40:57.159Z,4.23
2023-05-01T09:43:29.795Z,3.73
2023-05-01T09:46:03.714Z,3.83
2023-05-01T09:48:35.809Z,6.77
2023-05-01T09:51:22.754Z,4.17
2023-05-01T09:53:52.258Z,3.80
2023-05-01T09:56:21.624Z,4.10
2023-05-01T09:58:51.649Z,4.00
2023-05-01T10:01:20.500Z,4.13
2023-05-01T10:03:56.937Z,4.43
2023-05-01T10:06:29.542Z,4.53
2023-05-01T10:08:57.860Z,4.00
2023-05-01T10:11:27.137Z,4.40
2023-05-01T10:14:13.322Z,7.90
2023-05-01T10:16:41.524Z,4.00
2023-05-01T10:19:12.587Z,3.83
2023-05-01T10:21:40.796Z,4.47
2023-05-01T10:24:10.069Z,4.20
2023-05-01T10:26:38.869Z,3.87
2023-05-01T10:29:07.140Z,3.90
2023-05-01T10:31:35.776Z,3.90
2023-05-01T10:34:05.241Z,4.20
2023-05-01T10:36:39.468Z,4.10
2023-05-01T10:39:08.073Z,4.20
2023-05-01T10:42:11.233Z,4.40
2023-05-01T10:44:39.592Z,3.50
2023-05-01T10:47:47.418Z,3.53
2023-05-01T10:50:16.447Z,3.97
2023-05-01T10:53:23.655Z,4.17
2023-05-01T10:55:51.995Z,3.97
2023-05-01T10:58:58.748Z,3.70
2023-05-01T11:01:36.552Z,3.47
2023-05-01T11:04:08.197Z,2.90
2023-05-01T11:06:38.321Z,3.73
2023-05-01T11:09:39.248Z,3.80
2023-05-01T11:12:08.719Z,3.87
2023-05-01T11:15:07.834Z,3.47
2023-05-01T11:17:50.306Z,3.60
2023-05-01T11:20:50.320Z,3.57
2023-05-01T11:23:25.399Z,3.50
2023-05-01T11:26:08.276Z,3.40
2023-05-01T11:28:40.332Z,3.13
2023-05-01T11:31:08.598Z,3.10
2023-05-01T11:33:36.879Z,3.50
2023-05-01T11:36:05.817Z,3.30
2023-05-01T11:38:33.943Z,3.40
2023-05-01T11:41:05.174Z,3.23
2023-05-01T11:43:33.568Z,3.43
2023-05-01T11:46:04.742Z,3.03
2023-05-01T11:48:33.411Z,3.53
2023-05-01T11:51:01.483Z,3.13
2023-05-01T11:53:30.768Z,2.97
2023-05-01T11:55:59.380Z,3.00
2023-05-01T11:58:36.530Z,2.70
2023-05-01T12:01:07.156Z,2.03
2023-05-01T12:03:45.555Z,2.90
2023-05-01T12:06:14.968Z,2.50
2023-05-01T12:08:51.651Z,2.27
2023-05-01T12:11:21.305Z,2.70
2023-05-01T12:13:51.184Z,2.40
2023-05-01T12:16:19.420Z,2.80
2023-05-01T12:18:48.226Z,2.40
2023-05-01T12:21:19.775Z,2.30
2023-05-01T12:23:48.118Z,2.60
2023-05-01T12:26:23.450Z,2.50
2023-05-01T12:29:00.726Z,2.63
2023-05-01T12:31:34.778Z,2.90
2023-05-01T12:34:08.908Z,2.23
2023-05-01T12:36:42.702Z,2.43
2023-05-01T12:39:16.141Z,2.57
2023-05-01T12:41:50.357Z,2.57
2023-05-01T12:44:30.688Z,2.37
2023-05-01T12:47:07.820Z,2.30
2023-05-01T12:49:40.588Z,2.10
2023-05-01T12:52:13.044Z,2.43
2023-05-01T12:54:46.281Z,2.33
2023-05-01T12:57:20.640Z,2.17
2023-05-01T13:00:05.768Z,2.20
2023-05-01T13:02:38.242Z,2.30
2023-05-01T13:05:15.123Z,2.17
2023-05-01T13:07:53.030Z,4.17
2023-05-01T13:10:33.869Z,2.23
2023-05-01T13:13:07.320Z,3.17
2023-05-01T13:15:40.978Z,2.50
2023-05-01T13:18:14.195Z,2.50
2023-05-01T13:20:46.030Z,2.53
2023-05-01T13:23:18.388Z,2.17
2023-05-01T13:25:56.953Z,2.00
2023-05-01T13:28:29.823Z,2.40
2023-05-01T13:31:03.195Z,5.60
2023-05-01T13:33:35.970Z,4.27
2023-05-01T13:36:21.608Z,2.20
2023-05-01T13:38:58.207Z,2.13
2023-05-01T13:41:31.006Z,2.13
2023-05-01T13:44:02.599Z,2.20
2023-05-01T13:46:36.794Z,2.30
2023-05-01T13:49:09.761Z,3.10
2023-05-01T13:51:48.782Z,2.33
2023-05-01T13:54:20.514Z,2.03
2023-05-01T13:56:52.497Z,2.57
2023-05-01T13:59:24.440Z,2.97
2023-05-01T14:01:57.681Z,3.47
2023-05-01T14:04:29.835Z,2.00
2023-05-01T14:07:01.711Z,3.00
2023-05-01T14:09:39.111Z,2.00
2023-05-01T14:12:11.389Z,1.80
2023-05-01T14:14:49.116Z,2.40
2023-05-01T14:17:26.493Z,2.00
2023-05-01T14:19:58.513Z,1.90
2023-05-01T14:22:35.543Z,1.73
2023-05-01T14:25:28.443Z,1.80
2023-05-01T14:28:02.491Z,2.20
2023-05-01T14:30:38.496Z,1.70
2023-05-01T14:33:13.352Z,2.00
2023-05-01T14:35:52.099Z,2.40
2023-05-01T14:38:38.544Z,1.97
2023-05-01T14:41:13.829Z,6.70
2023-05-01T14:43:46.948Z,3.77
2023-05-01T14:46:29.821Z,1.53
2023-05-01T14:49:04.012Z,1.80
2023-05-01T14:51:37.074Z,2.00
2023-05-01T14:54:12.404Z,2.20
2023-05-01T14:56:46.512Z,2.10
2023-05-01T14:59:18.601Z,2.20
2023-05-01T15:01:50.483Z,2.40
2023-05-01T15:04:24.319Z,1.60
2023-05-01T15:06:56.050Z,4.13
2023-05-01T15:09:27.837Z,1.70
2023-05-01T15:11:59.708Z,1.40
2023-05-01T15:14:31.575Z,1.43
2023-05-01T15:17:03.602Z,1.53
2023-05-01T15:19:37.324Z,1.80
2023-05-01T15:22:09.186Z,5.90
2023-05-01T15:24:40.826Z,1.80
2023-05-01T15:27:13.081Z,4.07
2023-05-01T15:29:44.668Z,1.83
2023-05-01T15:32:16.735Z,3.67
2023-05-01T15:34:55.092Z,1.80
2023-05-01T15:37:27.085Z,2.03
2023-05-01T15:39:59.457Z,5.83
2023-05-01T15:42:32.858Z,12.70
2023-05-01T15:45:05.760Z,14.00
2023-05-01T15:47:38.059Z,1.90
2023-05-01T15:50:14.042Z,2.73
2023-05-01T15:52:46.599Z,2.30
2023-05-01T15:55:21.637Z,1.37
2023-05-01T15:57:53.314Z,1.50
2023-05-01T16:00:25.358Z,1.47
2023-05-01T16:02:57.129Z,1.47
2023-05-01T16:05:31.209Z,1.40
2023-05-01T16:08:06.714Z,1.90
2023-05-01T16:10:38.669Z,1.50
2023-05-01T16:13:12.749Z,1.37
2023-05-01T16:15:44.382Z,1.33
2023-05-01T16:18:24.323Z,1.27
2023-05-01T16:20:57.966Z,1.40
2023-05-01T16:23:30.954Z,1.20
2023-05-01T16:26:02.913Z,1.10
2023-05-01T16:28:37.396Z,1.23
2023-05-01T16:31:26.612Z,1.10
2023-05-01T16:33:58.929Z,1.20
2023-05-01T16:36:32.328Z,1.40
2023-05-01T16:39:04.187Z,1.37
2023-05-01T16:41:43.211Z,1.40
2023-05-01T16:44:16.186Z,1.50
2023-05-01T16:46:54.514Z,1.37
2023-05-01T16:49:28.233Z,1.60
2023-05-01T16:52:04.018Z,1.27
2023-05-01T16:54:36.605Z,1.23
2023-05-01T16:57:08.209Z,0.90
2023-05-01T16:59:40.094Z,1.07
2023-05-01T17:02:13.044Z,1.50
2023-05-01T17:04:45.559Z,1.60
2023-05-01T17:07:19.366Z,1.33
2023-05-01T17:09:51.271Z,1.53
2023-05-01T17:12:23.327Z,1.60
2023-05-01T17:14:55.165Z,1.40
2023-05-01T17:17:26.904Z,1.47
2023-05-01T17:19:59.179Z,1.40
2023-05-01T17:22:32.437Z,1.30
2023-05-01T17:25:04.296Z,1.80
2023-05-01T17:27:37.615Z,1.30
2023-05-01T17:30:12.201Z,1.33
2023-05-01T17:32:44.149Z,1.60
2023-05-01T17:35:19.008Z,1.30
2023-05-01T17:37:52.007Z,1.60
2023-05-01T17:40:24.334Z,1.80
2023-05-01T17:42:56.162Z,1.30
2023-05-01T17:45:28.128Z,1.43
2023-05-01T17:48:00.710Z,1.47
2023-05-01T17:50:32.392Z,1.70
2023-05-01T17:53:05.300Z,1.70
2023-05-01T17:55:38.830Z,1.50
2023-05-01T17:58:10.396Z,1.43
2023-05-01T18:00:42.479Z,1.70
2023-05-01T18:03:14.162Z,1.53
2023-05-01T18:05:45.943Z,1.60
2023-05-01T18:08:19.121Z,1.60
2023-05-01T18:10:51.070Z,1.73
2023-05-01T18:13:27.801Z,1.70
2023-05-01T18:15:59.606Z,1.50
2023-05-01T18:18:31.616Z,1.40
2023-05-01T18:21:03.553Z,1.30
2023-05-01T18:23:37.403Z,1.50
2023-05-01T18:26:09.062Z,1.43
2023-05-01T18:28:40.985Z,1.50
2023-05-01T18:31:14.237Z,1.47
2023-05-01T18:33:47.094Z,1.60
2023-05-01T18:36:18.971Z,1.63
2023-05-01T18:38:52.084Z,1.23
2023-05-01T18:41:26.355Z,1.60
2023-05-01T18:44:01.247Z,1.60
2023-05-01T18:46:33.183Z,1.47
2023-05-01T18:49:05.035Z,1.60
2023-05-01T18:51:37.277Z,2.07
2023-05-01T18:54:10.289Z,2.00
2023-05-01T18:56:42.127Z,1.90
2023-05-01T18:59:13.959Z,1.70
2023-05-01T19:01:45.979Z,2.00
2023-05-01T19:04:19.077Z,1.57
2023-05-01T19:06:50.822Z,1.70
2023-05-01T19:09:24.214Z,1.80
2023-05-01T19:11:56.227Z,1.90
2023-05-01T19:14:28.066Z,1.90
2023-05-01T19:16:59.941Z,1.50
2023-05-01T19:19:31.914Z,1.90
2023-05-01T19:22:05.921Z,1.97
2023-05-01T19:24:39.005Z,1.83
2023-05-01T19:27:11.667Z,1.90
2023-05-01T19:29:43.276Z,1.90
2023-05-01T19:32:15.335Z,1.73
2023-05-01T19:34:46.942Z,1.80
2023-05-01T19:37:18.808Z,1.80
2023-05-01T19:39:51.787Z,1.90
2023-05-01T19:42:23.770Z,1.63
2023-05-01T19:44:55.575Z,1.87
2023-05-01T19:47:27.491Z,1.80
2023-05-01T19:49:59.292Z,1.70
2023-05-01T19:52:31.232Z,1.77
2023-05-01T19:55:08.102Z,2.00
2023-05-01T19:57:39.780Z,1.97
2023-05-01T20:00:14.360Z,1.90
2023-05-01T20:02:47.502Z,2.00
2023-05-01T20:05:19.734Z,1.80
2023-05-01T20:07:51.539Z,2.50
2023-05-01T20:10:25.260Z,2.33
2023-05-01T20:12:56.962Z,2.23
2023-05-01T20:15:28.864Z,1.97
2023-05-01T20:18:01.282Z,1.90
2023-05-01T20:20:34.957Z,2.10
2023-05-01T20:23:18.838Z,2.17
2023-05-01T20:25:53.350Z,1.93
2023-05-01T20:28:25.797Z,2.20
2023-05-01T20:30:57.609Z,2.10
2023-05-01T20:33:29.486Z,1.90
2023-05-01T20:36:01.590Z,1.90
2023-05-01T20:38:33.182Z,2.20
2023-05-01T20:41:06.115Z,2.50
2023-05-01T20:43:38.313Z,2.30
2023-05-01T20:46:10.058Z,2.67
2023-05-01T20:48:41.925Z,2.60
2023-05-01T20:51:13.850Z,3.20
2023-05-01T20:53:45.764Z,2.40
2023-05-01T20:56:18.750Z,2.80
2023-05-01T20:58:50.618Z,3.30
2023-05-01T21:01:22.523Z,3.10
2023-05-01T21:03:54.603Z,3.20
2023-05-01T21:06:26.907Z,2.97
2023-05-01T21:08:59.692Z,3.17
2023-05-01T21:11:32.905Z,3.27
2023-05-01T21:14:04.806Z,3.50
2023-05-01T21:16:39.840Z,3.00
2023-05-01T21:19:13.838Z,3.50
2023-05-01T21:21:45.734Z,3.50
2023-05-01T21:24:24.178Z,3.37
2023-05-01T21:26:58.528Z,3.50
2023-05-01T21:29:30.912Z,4.23
2023-05-01T21:32:04.169Z,3.70
2023-05-01T21:34:36.276Z,3.50
2023-05-01T21:37:08.707Z,3.33
2023-05-01T21:39:41.560Z,3.10
2023-05-01T21:42:15.492Z,4.13
2023-05-01T21:44:47.288Z,3.60
2023-05-01T21:47:19.976Z,3.60
2023-05-01T21:49:56.861Z,3.87
2023-05-01T21:52:29.605Z,3.80
2023-05-01T21:55:01.790Z,3.30
2023-05-01T21:57:38.180Z,3.20
2023-05-01T22:00:12.288Z,3.63
2023-05-01T22:02:47.460Z,3.47
2023-05-01T22:05:22.459Z,3.50
2023-05-01T22:07:54.885Z,3.90
2023-05-01T22:10:26.484Z,3.80
2023-05-01T22:12:59.639Z,3.10
2023-05-01T22:15:31.407Z,3.23
2023-05-01T22:18:03.357Z,2.97
2023-05-01T22:20:35.031Z,2.83
2023-05-01T22:23:07.452Z,3.33
2023-05-01T22:25:39.382Z,3.00
2023-05-01T22:28:12.567Z,3.00
2023-05-01T22:30:44.458Z,2.73
2023-05-01T22:33:16.470Z,2.63
2023-05-01T22:35:48.183Z,2.90
2023-05-01T22:38:19.969Z,2.73
2023-05-01T22:40:51.832Z,2.73
2023-05-01T22:43:25.971Z,2.50
2023-05-01T22:45:57.704Z,2.70
2023-05-01T22:48:29.613Z,2.70
2023-05-01T22:51:01.450Z,2.80
2023-05-01T22:53:33.319Z,2.63
2023-05-01T22:56:05.172Z,2.80
2023-05-01T22:58:38.504Z,2.80
2023-05-01T23:01:10.498Z,2.57
2023-05-01T23:03:42.279Z,2.27
2023-05-01T23:06:13.971Z,2.43
2023-05-01T23:08:45.889Z,2.40
2023-05-01T23:11:21.874Z,2.37
2023-05-01T23:13:55.403Z,2.20
2023-05-01T23:16:27.558Z,2.40
2023-05-01T23:19:00.774Z,2.33
2023-05-01T23:21:32.623Z,2.27
2023-05-01T23:24:06.413Z,2.47
2023-05-01T23:26:42.038Z,2.60
2023-05-01T23:29:15.935Z,2.20
2023-05-01T23:31:51.771Z,2.23
2023-05-01T23:34:23.470Z,2.30
2023-05-01T23:36:55.293Z,2.27
2023-05-01T23:39:27.145Z,2.13
2023-05-01T23:41:59.078Z,2.30
2023-05-01T23:44:32.326Z,2.23
2023-05-01T23:47:04.554Z,2.20
2023-05-01T23:49:36.214Z,1.87
2023-05-01T23:52:08.313Z,2.50
2023-05-01T23:54:40.096Z,2.60
2023-05-01T23:57:11.979Z,2.10
2023-05-01T23:59:45.127Z,2.10
